createdAt,value
2022-10-17T00:01:11.263Z,12.90
2022-10-17T00:03:40.496Z,12.90
2022-10-17T00:06:09.776Z,12.90
2022-10-17T00:08:39.005Z,12.80
2022-10-17T00:11:11.092Z,12.80
2022-10-17T00:13:40.752Z,12.80
2022-10-17T00:16:09.804Z,12.80
2022-10-17T00:18:38.175Z,12.80
2022-10-17T00:21:06.800Z,12.80
2022-10-17T00:23:35.228Z,12.80
2022-10-17T00:26:06.360Z,12.80
2022-10-17T00:28:34.973Z,12.80
2022-10-17T00:31:06.569Z,12.80
2022-10-17T00:33:36.306Z,12.80
2022-10-17T00:36:06.340Z,12.90
2022-10-17T00:38:35.732Z,12.90
2022-10-17T00:41:04.877Z,12.90
2022-10-17T00:43:51.276Z,12.90
2022-10-17T00:46:21.413Z,12.90
2022-10-17T00:48:52.583Z,12.90
2022-10-17T00:51:24.272Z,12.90
2022-10-17T00:53:52.922Z,12.90
2022-10-17T00:56:22.482Z,12.90
2022-10-17T00:58:50.930Z,13.00
2022-10-17T01:01:20.698Z,12.90
2022-10-17T01:03:49.028Z,13.00
2022-10-17T01:06:17.453Z,13.00
2022-10-17T01:08:45.948Z,13.00
2022-10-17T01:11:24.282Z,13.00
2022-10-17T01:13:57.684Z,13.00
2022-10-17T01:16:38.173Z,13.00
2022-10-17T01:19:27.923Z,13.00
2022-10-17T01:22:03.289Z,13.00
2022-10-17T01:24:50.129Z,13.00
2022-10-17T01:27:48.763Z,13.00
2022-10-17T01:30:46.425Z,13.10
2022-10-17T01:33:19.039Z,13.10
2022-10-17T01:35:54.729Z,13.00
2022-10-17T01:38:28.107Z,13.00
2022-10-17T01:41:02.619Z,13.10
2022-10-17T01:43:36.627Z,13.10
2022-10-17T01:46:13.686Z,13.10
2022-10-17T01:48:45.483Z,13.10
2022-10-17T01:51:19.423Z,13.10
2022-10-17T01:53:53.004Z,13.10
2022-10-17T01:56:25.165Z,13.10
2022-10-17T01:58:58.552Z,13.10
2022-10-17T02:01:29.807Z,13.20
2022-10-17T02:04:00.138Z,13.20
2022-10-17T02:06:28.368Z,13.20
2022-10-17T02:08:56.748Z,13.20
2022-10-17T02:11:27.182Z,13.20
2022-10-17T02:14:13.348Z,13.20
2022-10-17T02:16:51.211Z,13.20
2022-10-17T02:19:40.099Z,13.30
2022-10-17T02:22:19.668Z,13.20
2022-10-17T02:24:53.851Z,13.30
2022-10-17T02:27:33.012Z,13.30
2022-10-17T02:30:08.181Z,13.30
2022-10-17T02:32:46.602Z,13.30
2022-10-17T02:35:21.008Z,13.30
2022-10-17T02:37:50.879Z,13.30
2022-10-17T02:40:22.294Z,13.30
2022-10-17T02:42:52.640Z,13.40
2022-10-17T02:45:21.659Z,13.30
2022-10-17T02:47:58.926Z,13.30
2022-10-17T02:50:35.348Z,13.40
2022-10-17T02:53:07.547Z,13.40
2022-10-17T02:55:40.476Z,13.40
2022-10-17T02:58:13.528Z,13.40
2022-10-17T03:00:43.404Z,13.40
2022-10-17T03:03:23.498Z,13.40
2022-10-17T03:05:52.328Z,13.40
2022-10-17T03:08:20.768Z,13.40
2022-10-17T03:10:49.410Z,13.40
2022-10-17T03:13:18.111Z,13.40
2022-10-17T03:15:46.390Z,13.40
2022-10-17T03:18:14.812Z,13.40
2022-10-17T03:20:44.540Z,13.40
2022-10-17T03:23:12.820Z,13.40
2022-10-17T03:25:41.897Z,13.50
2022-10-17T03:28:11.912Z,13.50
2022-10-17T03:30:40.392Z,13.50
2022-10-17T03:33:08.621Z,13.40
2022-10-17T03:35:41.300Z,13.40
2022-10-17T03:38:10.990Z,13.40
2022-10-17T03:40:39.230Z,13.40
2022-10-17T03:43:07.592Z,13.40
2022-10-17T03:45:36.966Z,13.40
2022-10-17T03:48:05.609Z,13.40
2022-10-17T03:50:33.964Z,13.40
2022-10-17T03:53:02.251Z,13.40
2022-10-17T03:55:31.861Z,13.40
2022-10-17T03:58:00.168Z,13.40
2022-10-17T04:00:28.420Z,13.40
2022-10-17T04:02:56.680Z,13.40
2022-10-17T04:05:25.268Z,13.40
2022-10-17T04:07:53.548Z,13.30
2022-10-17T04:10:21.772Z,13.30
2022-10-17T04:12:51.600Z,13.30
2022-10-17T04:15:19.892Z,13.30
2022-10-17T04:17:48.665Z,13.30
2022-10-17T04:20:17.100Z,13.30
2022-10-17T04:22:45.458Z,13.30
2022-10-17T04:25:13.727Z,13.30
2022-10-17T04:27:41.965Z,13.30
2022-10-17T04:30:12.613Z,13.30
2022-10-17T04:32:41.091Z,13.30
2022-10-17T04:35:10.228Z,13.30
2022-10-17T04:37:38.474Z,13.30
2022-10-17T04:40:07.824Z,13.20
2022-10-17T04:42:36.046Z,13.20
2022-10-17T04:45:04.475Z,13.20
2022-10-17T04:47:34.431Z,13.20
2022-10-17T04:50:02.704Z,13.10
2022-10-17T04:52:32.200Z,13.20
2022-10-17T04:55:00.648Z,13.10
2022-10-17T04:57:28.884Z,13.10
2022-10-17T04:59:57.365Z,13.10
2022-10-17T05:02:25.788Z,13.10
2022-10-17T05:04:55.545Z,13.10
2022-10-17T05:07:23.880Z,13.10
2022-10-17T05:09:52.188Z,13.10
2022-10-17T05:12:20.549Z,13.10
2022-10-17T05:14:48.978Z,13.10
2022-10-17T05:17:17.291Z,13.10
2022-10-17T05:19:46.261Z,13.10
2022-10-17T05:22:16.103Z,13.10
2022-10-17T05:24:44.386Z,13.10
2022-10-17T05:27:12.660Z,13.00
2022-10-17T05:29:40.918Z,13.00
2022-10-17T05:32:09.166Z,13.00
2022-10-17T05:34:38.057Z,13.00
2022-10-17T05:37:09.145Z,13.00
2022-10-17T05:39:39.021Z,13.00
2022-10-17T05:42:08.371Z,13.00
2022-10-17T05:44:36.646Z,13.00
2022-10-17T05:47:04.896Z,13.00
2022-10-17T05:49:43.974Z,13.00
2022-10-17T05:52:16.855Z,12.90
2022-10-17T05:54:46.599Z,13.00
2022-10-17T05:57:14.820Z,13.00
2022-10-17T05:59:43.165Z,12.90
2022-10-17T06:02:12.585Z,13.00
2022-10-17T06:04:45.654Z,13.00
2022-10-17T06:07:14.044Z,13.00
2022-10-17T06:09:42.440Z,13.00
2022-10-17T06:12:12.346Z,13.00
2022-10-17T06:14:40.550Z,13.00
2022-10-17T06:17:13.391Z,13.00
2022-10-17T06:19:44.968Z,13.00
2022-10-17T06:22:13.571Z,13.00
2022-10-17T06:24:42.398Z,13.00
2022-10-17T06:27:12.246Z,13.00
2022-10-17T06:29:40.605Z,13.00
2022-10-17T06:32:12.621Z,13.00
2022-10-17T06:34:43.272Z,13.00
2022-10-17T06:37:11.489Z,13.00
2022-10-17T06:39:39.744Z,13.00
2022-10-17T06:42:08.030Z,13.00
2022-10-17T06:44:37.641Z,13.00
2022-10-17T06:47:05.888Z,12.90
2022-10-17T06:49:34.431Z,13.00
2022-10-17T06:52:02.760Z,12.90
2022-10-17T06:54:31.161Z,12.90
2022-10-17T06:57:00.633Z,12.90
2022-10-17T06:59:28.913Z,13.00
2022-10-17T07:01:58.592Z,13.00
2022-10-17T07:04:27.445Z,13.00
2022-10-17T07:06:55.854Z,12.90
2022-10-17T07:09:24.395Z,13.00
2022-10-17T07:11:52.745Z,13.00
2022-10-17T07:14:20.992Z,13.00
2022-10-17T07:16:50.020Z,13.00
2022-10-17T07:19:19.865Z,13.00
2022-10-17T07:21:49.148Z,13.00
2022-10-17T07:24:17.715Z,13.00
2022-10-17T07:26:45.975Z,13.00
2022-10-17T07:29:14.390Z,13.00
2022-10-17T07:31:42.708Z,13.00
2022-10-17T07:34:10.981Z,13.00
2022-10-17T07:36:40.648Z,13.00
2022-10-17T07:39:09.016Z,13.00
2022-10-17T07:41:37.751Z,13.00
2022-10-17T07:44:06.300Z,13.00
2022-10-17T07:46:34.516Z,13.00
2022-10-17T07:49:02.760Z,13.10
2022-10-17T07:51:31.092Z,13.10
2022-10-17T07:54:00.787Z,13.20
2022-10-17T07:56:29.782Z,13.20
2022-10-17T07:59:00.720Z,13.20
2022-10-17T08:01:31.168Z,13.20
2022-10-17T08:03:59.631Z,13.30
2022-10-17T08:06:27.899Z,13.30
2022-10-17T08:08:58.170Z,13.30
2022-10-17T08:11:27.892Z,13.40
2022-10-17T08:13:56.176Z,13.40
2022-10-17T08:16:24.463Z,13.40
2022-10-17T08:18:52.701Z,13.40
2022-10-17T08:21:21.222Z,13.40
2022-10-17T08:23:49.467Z,13.50
2022-10-17T08:26:20.099Z,13.50
2022-10-17T08:28:50.438Z,13.50
2022-10-17T08:31:20.644Z,13.50
2022-10-17T08:33:50.117Z,13.60
2022-10-17T08:36:20.896Z,13.60
2022-10-17T08:38:52.857Z,13.60
2022-10-17T08:41:39.302Z,13.60
2022-10-17T08:44:18.678Z,13.60
2022-10-17T08:46:50.956Z,13.70
2022-10-17T08:49:27.638Z,13.70
2022-10-17T08:52:03.823Z,13.70
2022-10-17T08:54:40.513Z,13.70
2022-10-17T08:57:13.303Z,13.70
2022-10-17T08:59:44.141Z,13.70
2022-10-17T09:02:40.052Z,13.80
2022-10-17T09:05:37.332Z,13.80
2022-10-17T09:08:26.026Z,13.80
2022-10-17T09:10:59.024Z,13.80
2022-10-17T09:13:41.569Z,13.90
2022-10-17T09:16:32.881Z,13.90
2022-10-17T09:19:05.593Z,14.00
2022-10-17T09:21:43.000Z,14.00
2022-10-17T09:24:17.514Z,14.00
2022-10-17T09:26:47.319Z,14.00
2022-10-17T09:29:23.357Z,14.00
2022-10-17T09:32:00.524Z,14.00
2022-10-17T09:34:32.150Z,14.10
2022-10-17T09:37:02.124Z,14.10
2022-10-17T09:39:32.209Z,14.10
2022-10-17T09:42:02.340Z,14.20
2022-10-17T09:44:33.456Z,14.20
2022-10-17T09:47:21.830Z,14.20
2022-10-17T09:49:50.832Z,14.30
2022-10-17T09:52:21.644Z,14.30
2022-10-17T09:54:51.808Z,14.30
2022-10-17T09:57:22.215Z,14.30
2022-10-17T10:00:00.859Z,14.40
2022-10-17T10:02:33.502Z,14.40
2022-10-17T10:05:05.904Z,14.40
2022-10-17T10:07:37.090Z,14.50
2022-10-17T10:10:08.025Z,14.50
2022-10-17T10:12:39.070Z,14.50
2022-10-17T10:15:32.256Z,14.60
2022-10-17T10:18:02.484Z,14.60
2022-10-17T10:20:34.529Z,14.70
2022-10-17T10:23:14.333Z,14.70
2022-10-17T10:25:56.201Z,14.70
2022-10-17T10:28:28.512Z,14.70
2022-10-17T10:30:58.605Z,14.80
2022-10-17T10:33:30.762Z,14.80
2022-10-17T10:36:02.052Z,14.80
2022-10-17T10:38:31.854Z,14.80
2022-10-17T10:41:05.075Z,14.80
2022-10-17T10:43:37.949Z,14.80
2022-10-17T10:46:08.081Z,14.80
2022-10-17T10:48:38.530Z,14.80
2022-10-17T10:51:13.763Z,14.90
2022-10-17T10:53:48.313Z,14.90
2022-10-17T10:56:20.421Z,15.00
2022-10-17T10:58:56.396Z,15.00
2022-10-17T11:01:31.495Z,15.00
2022-10-17T11:04:18.743Z,15.00
2022-10-17T11:06:48.383Z,15.00
2022-10-17T11:09:30.071Z,15.00
2022-10-17T11:12:06.589Z,15.10
2022-10-17T11:14:43.677Z,15.10
2022-10-17T11:17:18.906Z,15.10
2022-10-17T11:19:57.453Z,15.20
2022-10-17T11:22:31.136Z,15.20
2022-10-17T11:25:05.132Z,15.20
2022-10-17T11:27:35.897Z,15.30
2022-10-17T11:30:05.004Z,15.30
2022-10-17T11:32:38.431Z,15.30
2022-10-17T11:35:16.412Z,15.40
2022-10-17T11:37:52.272Z,15.40
2022-10-17T11:40:25.366Z,15.40
2022-10-17T11:43:00.407Z,15.50
2022-10-17T11:45:34.841Z,15.50
2022-10-17T11:48:07.650Z,15.50
2022-10-17T11:53:32.448Z,15.60
2022-10-17T11:56:02.795Z,15.60
2022-10-17T11:58:40.748Z,15.60
2022-10-17T12:01:17.159Z,15.60
2022-10-17T12:03:58.542Z,15.60
2022-10-17T12:06:40.465Z,15.60
2022-10-17T12:09:16.831Z,15.70
2022-10-17T12:11:54.216Z,15.70
2022-10-17T12:14:41.687Z,15.70
2022-10-17T12:17:33.089Z,15.80
2022-10-17T12:20:31.095Z,15.80
2022-10-17T12:23:18.947Z,15.90
2022-10-17T12:25:52.352Z,15.90
2022-10-17T12:28:27.338Z,15.90
2022-10-17T12:31:01.052Z,15.90
2022-10-17T12:33:33.868Z,15.90
2022-10-17T12:36:48.306Z,15.90
2022-10-17T12:39:45.789Z,16.00
2022-10-17T12:42:34.754Z,16.00
2022-10-17T12:45:03.050Z,16.10
2022-10-17T12:47:40.205Z,16.10
2022-10-17T12:50:44.255Z,16.10
2022-10-17T12:53:19.248Z,16.20
2022-10-17T12:55:51.908Z,16.20
2022-10-17T12:58:20.239Z,16.20
2022-10-17T13:01:18.890Z,16.20
2022-10-17T13:03:45.725Z,16.30
2022-10-17T13:06:21.835Z,16.30
2022-10-17T13:08:59.782Z,16.30
2022-10-17T13:11:36.217Z,16.30
2022-10-17T13:14:12.001Z,16.30
2022-10-17T13:16:42.720Z,16.30
2022-10-17T13:19:16.444Z,16.40
2022-10-17T13:21:51.709Z,16.40
2022-10-17T13:24:24.773Z,16.40
2022-10-17T13:26:54.477Z,16.50
2022-10-17T13:29:25.698Z,16.40
2022-10-17T13:31:56.711Z,16.50
2022-10-17T13:34:27.087Z,16.60
2022-10-17T13:36:58.030Z,16.50
2022-10-17T13:39:44.860Z,16.60
2022-10-17T13:42:30.512Z,16.60
2022-10-17T13:45:00.325Z,16.60
2022-10-17T13:47:30.377Z,16.70
2022-10-17T13:50:00.211Z,16.70
2022-10-17T13:52:30.909Z,16.70
2022-10-17T13:55:08.815Z,16.80
2022-10-17T13:57:38.628Z,16.80
2022-10-17T14:00:12.516Z,16.80
2022-10-17T14:02:42.541Z,16.90
2022-10-17T14:05:18.107Z,17.00
2022-10-17T14:08:10.451Z,17.00
2022-10-17T14:10:41.749Z,17.00
2022-10-17T14:13:22.056Z,17.10
2022-10-17T14:15:51.212Z,17.10
2022-10-17T14:18:25.002Z,17.20
2022-10-17T14:23:45.084Z,17.20
2022-10-17T14:26:16.553Z,17.20
2022-10-17T14:28:48.443Z,17.30
2022-10-17T14:31:27.570Z,17.30
2022-10-17T14:33:56.577Z,17.40
2022-10-17T14:36:37.959Z,17.40
2022-10-17T14:39:12.015Z,17.50
2022-10-17T14:41:45.571Z,17.60
2022-10-17T14:44:22.870Z,17.60
2022-10-17T14:46:55.268Z,17.80
2022-10-17T14:49:29.866Z,17.80
2022-10-17T14:52:30.675Z,17.90
2022-10-17T14:55:00.724Z,18.00
2022-10-17T14:57:41.955Z,18.00
2022-10-17T15:00:16.334Z,18.10
2022-10-17T15:02:45.932Z,18.10
2022-10-17T15:05:14.659Z,18.20
2022-10-17T15:07:43.797Z,18.20
2022-10-17T15:10:34.065Z,18.30
2022-10-17T15:13:27.297Z,18.30
2022-10-17T15:15:53.857Z,18.20
2022-10-17T15:18:22.120Z,18.20
2022-10-17T15:20:56.285Z,18.10
2022-10-17T15:23:33.317Z,18.10
2022-10-17T15:26:02.560Z,18.10
2022-10-17T15:28:30.827Z,18.00
2022-10-17T15:31:00.530Z,18.00
2022-10-17T15:33:28.780Z,17.90
2022-10-17T15:38:26.263Z,17.90
2022-10-17T15:40:54.521Z,17.80
2022-10-17T15:43:23.242Z,17.70
2022-10-17T15:45:51.501Z,17.60
2022-10-17T15:48:27.055Z,17.60
2022-10-17T15:50:56.365Z,17.60
2022-10-17T15:53:24.882Z,17.50
2022-10-17T15:55:53.415Z,17.50
2022-10-17T15:58:21.879Z,17.40
2022-10-17T16:00:50.270Z,17.40
2022-10-17T16:03:18.832Z,17.40
2022-10-17T16:05:48.686Z,17.40
2022-10-17T16:08:16.933Z,17.40
2022-10-17T16:10:45.658Z,17.30
2022-10-17T16:13:18.852Z,17.30
2022-10-17T16:15:47.264Z,17.20
2022-10-17T16:18:15.788Z,17.20
2022-10-17T16:20:44.067Z,17.20
2022-10-17T16:23:14.775Z,17.10
2022-10-17T16:25:44.281Z,17.10
2022-10-17T16:28:12.542Z,17.00
2022-10-17T16:30:46.431Z,17.00
2022-10-17T16:33:14.909Z,16.90
2022-10-17T16:35:43.308Z,16.80
2022-10-17T16:38:11.626Z,16.80
2022-10-17T16:40:43.985Z,16.80
2022-10-17T16:43:14.193Z,16.70
2022-10-17T16:45:42.798Z,16.70
2022-10-17T16:48:12.439Z,16.70
2022-10-17T16:50:41.542Z,16.60
2022-10-17T16:53:09.920Z,16.60
2022-10-17T16:55:38.188Z,16.50
2022-10-17T16:58:07.963Z,16.50
2022-10-17T17:00:36.326Z,16.50
2022-10-17T17:03:05.032Z,16.40
2022-10-17T17:05:33.400Z,16.40
2022-10-17T17:08:03.708Z,16.30
2022-10-17T17:10:31.947Z,16.30
2022-10-17T17:13:01.730Z,16.20
2022-10-17T17:15:31.795Z,16.20
2022-10-17T17:18:04.861Z,16.20
2022-10-17T17:20:34.967Z,16.10
2022-10-17T17:23:03.380Z,16.10
2022-10-17T17:25:31.636Z,16.10
2022-10-17T17:27:59.881Z,16.00
2022-10-17T17:30:29.733Z,15.90
2022-10-17T17:33:00.111Z,15.90
2022-10-17T17:35:28.645Z,15.90
2022-10-17T17:37:57.070Z,15.90
2022-10-17T17:40:25.359Z,15.80
2022-10-17T17:42:53.639Z,15.80
2022-10-17T17:45:21.936Z,15.80
2022-10-17T17:47:50.262Z,15.80
2022-10-17T17:50:19.962Z,15.70
2022-10-17T17:52:50.797Z,15.60
2022-10-17T17:55:19.276Z,15.60
2022-10-17T17:57:47.513Z,15.50
2022-10-17T18:00:16.235Z,15.50
2022-10-17T18:02:44.616Z,15.50
2022-10-17T18:05:12.882Z,15.40
2022-10-17T18:07:42.751Z,15.40
2022-10-17T18:12:43.887Z,15.30
2022-10-17T18:15:12.568Z,15.30
2022-10-17T18:17:41.126Z,15.30
2022-10-17T18:20:10.234Z,15.20
2022-10-17T18:22:38.678Z,15.20
2022-10-17T18:25:09.410Z,15.20
2022-10-17T18:27:37.749Z,15.10
2022-10-17T18:30:06.960Z,15.10
2022-10-17T18:32:35.335Z,15.10
2022-10-17T18:35:03.641Z,15.10
2022-10-17T18:37:32.518Z,15.00
2022-10-17T18:40:02.486Z,15.00
2022-10-17T18:42:32.586Z,15.00
2022-10-17T18:45:00.978Z,15.00
2022-10-17T18:47:29.773Z,15.00
2022-10-17T18:49:58.700Z,15.00
2022-10-17T18:52:27.147Z,14.90
2022-10-17T18:54:55.814Z,14.80
2022-10-17T18:57:26.224Z,14.70
2022-10-17T18:59:56.085Z,14.70
2022-10-17T19:02:24.932Z,14.60
2022-10-17T19:04:53.182Z,14.60
2022-10-17T19:07:21.479Z,14.60
2022-10-17T19:09:50.353Z,14.60
2022-10-17T19:12:18.602Z,14.50
2022-10-17T19:14:46.975Z,14.50
2022-10-17T19:17:17.000Z,14.60
2022-10-17T19:19:45.411Z,14.60
2022-10-17T19:22:13.901Z,14.50
2022-10-17T19:24:42.235Z,14.60
2022-10-17T19:27:12.283Z,14.60
2022-10-17T19:29:43.564Z,14.60
2022-10-17T19:32:16.675Z,14.60
2022-10-17T19:34:49.169Z,14.50
2022-10-17T19:37:17.590Z,14.60
2022-10-17T19:39:46.941Z,14.60
2022-10-17T19:42:15.267Z,14.50
2022-10-17T19:44:44.091Z,14.50
2022-10-17T19:47:12.383Z,14.50
2022-10-17T19:49:40.941Z,14.50
2022-10-17T19:52:10.943Z,14.40
2022-10-17T19:54:40.756Z,14.40
2022-10-17T19:57:10.524Z,14.40
2022-10-17T19:59:39.149Z,14.30
2022-10-17T20:02:07.826Z,14.30
2022-10-17T20:04:37.558Z,14.30
2022-10-17T20:07:11.770Z,14.30
2022-10-17T20:09:40.053Z,14.30
2022-10-17T20:12:08.564Z,14.20
2022-10-17T20:14:40.911Z,14.20
2022-10-17T20:17:09.621Z,14.20
2022-10-17T20:19:37.990Z,14.20
2022-10-17T20:22:06.348Z,14.10
2022-10-17T20:24:36.321Z,14.10
2022-10-17T20:27:04.990Z,14.10
2022-10-17T20:29:33.252Z,14.10
2022-10-17T20:32:01.723Z,14.10
2022-10-17T20:34:34.808Z,14.10
2022-10-17T20:37:03.264Z,14.10
2022-10-17T20:39:31.559Z,14.10
2022-10-17T20:42:01.430Z,14.10
2022-10-17T20:44:29.732Z,14.10
2022-10-17T20:47:02.189Z,14.10
2022-10-17T20:49:31.534Z,14.10
2022-10-17T20:52:00.701Z,14.10
2022-10-17T20:54:29.591Z,14.00
2022-10-17T20:57:01.089Z,14.00
2022-10-17T20:59:34.986Z,14.00
2022-10-17T21:02:04.060Z,14.00
2022-10-17T21:04:45.909Z,13.90
2022-10-17T21:07:15.679Z,13.90
2022-10-17T21:09:43.948Z,13.90
2022-10-17T21:12:18.092Z,13.90
2022-10-17T21:14:56.143Z,13.90
2022-10-17T21:17:24.736Z,13.90
2022-10-17T21:19:53.077Z,13.90
2022-10-17T21:22:21.816Z,13.80
2022-10-17T21:24:50.214Z,13.80
2022-10-17T21:27:20.035Z,13.80
2022-10-17T21:29:49.168Z,13.80
2022-10-17T21:32:31.986Z,13.80
2022-10-17T21:35:08.143Z,13.80
2022-10-17T21:37:36.390Z,13.80
2022-10-17T21:40:04.881Z,13.80
2022-10-17T21:42:33.532Z,13.80
2022-10-17T21:45:04.746Z,13.80
2022-10-17T21:47:41.832Z,13.80
2022-10-17T21:50:13.880Z,13.80
2022-10-17T21:52:42.188Z,13.70
2022-10-17T21:55:10.715Z,13.70
2022-10-17T21:57:38.957Z,13.70
2022-10-17T22:00:08.158Z,13.70
2022-10-17T22:02:36.399Z,13.70
2022-10-17T22:05:06.463Z,13.70
2022-10-17T22:07:34.926Z,13.70
2022-10-17T22:10:03.192Z,13.70
2022-10-17T22:12:31.695Z,13.70
2022-10-17T22:15:00.179Z,13.60
2022-10-17T22:17:28.696Z,13.60
2022-10-17T22:19:57.195Z,13.60
2022-10-17T22:22:26.909Z,13.60
2022-10-17T22:24:55.156Z,13.50
2022-10-17T22:27:23.422Z,13.50
2022-10-17T22:29:51.724Z,13.50
2022-10-17T22:32:22.417Z,13.50
2022-10-17T22:34:51.104Z,13.50
2022-10-17T22:37:19.422Z,13.40
2022-10-17T22:39:49.141Z,13.40
2022-10-17T22:42:17.410Z,13.30
2022-10-17T22:44:46.620Z,13.30
2022-10-17T22:47:14.941Z,13.20
2022-10-17T22:49:43.345Z,13.20
2022-10-17T22:52:11.583Z,13.20
2022-10-17T22:54:39.897Z,13.20
2022-10-17T22:57:09.586Z,13.10
2022-10-17T22:59:38.001Z,13.10
2022-10-17T23:02:06.510Z,13.10
2022-10-17T23:04:34.852Z,13.10
2022-10-17T23:07:03.072Z,13.10
2022-10-17T23:09:31.437Z,13.00
2022-10-17T23:11:59.692Z,13.00
2022-10-17T23:14:29.452Z,13.00
2022-10-17T23:16:57.698Z,12.90
2022-10-17T23:19:26.042Z,12.90
2022-10-17T23:21:54.364Z,12.80
2022-10-17T23:24:22.612Z,12.80
2022-10-17T23:26:50.860Z,12.70
2022-10-17T23:29:19.824Z,12.70
2022-10-17T23:31:50.023Z,12.70
2022-10-17T23:34:18.259Z,12.60
2022-10-17T23:36:46.661Z,12.60
2022-10-17T23:39:15.027Z,12.60
2022-10-17T23:41:43.320Z,12.60
2022-10-17T23:44:11.770Z,12.60
2022-10-17T23:46:40.236Z,12.60
2022-10-17T23:49:09.916Z,12.50
2022-10-17T23:51:38.146Z,12.50
2022-10-17T23:54:06.387Z,12.50
2022-10-17T23:56:34.609Z,12.40
2022-10-17T23:59:02.926Z,12.40
